sensor_id;sensor_type;location;lat;lon;timestamp;temperature;humidity
22966;DHT22;11649;48.090;9.754;2022-12-18T00:02:17;-2.30;99.90
22966;DHT22;11649;48.090;9.754;2022-12-18T00:04:44;-2.20;99.90
22966;DHT22;11649;48.090;9.754;2022-12-18T00:07:11;-2.20;99.90
22966;DHT22;11649;48.090;9.754;2022-12-18T00:09:38;-2.20;99.90
22966;DHT22;11649;48.090;9.754;2022-12-18T00:12:06;-2.40;99.90
22966;DHT22;11649;48.090;9.754;2022-12-18T00:14:41;-2.40;99.90
22966;DHT22;11649;48.090;9.754;2022-12-18T00:17:08;-2.40;99.90
22966;DHT22;11649;48.090;9.754;2022-12-18T00:19:35;-2.40;99.90
22966;DHT22;11649;48.090;9.754;2022-12-18T00:22:02;-2.40;99.90
22966;DHT22;11649;48.090;9.754;2022-12-18T00:24:29;-2.30;99.90
22966;DHT22;11649;48.090;9.754;2022-12-18T00:26:56;-2.20;99.90
22966;DHT22;11649;48.090;9.754;2022-12-18T00:29:22;-2.20;99.90
22966;DHT22;11649;48.090;9.754;2022-12-18T00:31:49;-2.20;99.90
22966;DHT22;11649;48.090;9.754;2022-12-18T00:34:16;-2.30;99.90
22966;DHT22;11649;48.090;9.754;2022-12-18T00:36:43;-2.30;99.90
22966;DHT22;11649;48.090;9.754;2022-12-18T00:39:10;-2.20;99.90
22966;DHT22;11649;48.090;9.754;2022-12-18T00:41:38;-2.30;99.90
22966;DHT22;11649;48.090;9.754;2022-12-18T00:44:23;-2.30;99.90
22966;DHT22;11649;48.090;9.754;2022-12-18T00:46:50;-2.40;99.90
22966;DHT22;11649;48.090;9.754;2022-12-18T00:49:18;-2.40;99.90
22966;DHT22;11649;48.090;9.754;2022-12-18T00:51:45;-2.50;99.90
22966;DHT22;11649;48.090;9.754;2022-12-18T00:54:13;-2.60;99.90
22966;DHT22;11649;48.090;9.754;2022-12-18T00:56:40;-2.50;99.90
22966;DHT22;11649;48.090;9.754;2022-12-18T00:59:14;-2.40;99.90
22966;DHT22;11649;48.090;9.754;2022-12-18T01:01:41;-2.50;99.90
22966;DHT22;11649;48.090;9.754;2022-12-18T01:04:09;-2.50;99.90
22966;DHT22;11649;48.090;9.754;2022-12-18T01:06:36;-2.40;99.90
22966;DHT22;11649;48.090;9.754;2022-12-18T01:09:03;-2.40;99.90
22966;DHT22;11649;48.090;9.754;2022-12-18T01:11:30;-2.40;99.90
22966;DHT22;11649;48.090;9.754;2022-12-18T01:13:57;-2.40;99.90
22966;DHT22;11649;48.090;9.754;2022-12-18T01:16:24;-2.40;99.90
22966;DHT22;11649;48.090;9.754;2022-12-18T01:18:52;-2.30;99.90
22966;DHT22;11649;48.090;9.754;2022-12-18T01:21:20;-2.30;99.90
22966;DHT22;11649;48.090;9.754;2022-12-18T01:23:51;-2.30;99.90
22966;DHT22;11649;48.090;9.754;2022-12-18T01:26:19;-2.50;99.90
22966;DHT22;11649;48.090;9.754;2022-12-18T01:28:46;-2.50;99.90
22966;DHT22;11649;48.090;9.754;2022-12-18T01:31:32;-2.50;99.90
22966;DHT22;11649;48.090;9.754;2022-12-18T01:34:04;-2.50;99.90
22966;DHT22;11649;48.090;9.754;2022-12-18T01:36:33;-2.40;99.90
22966;DHT22;11649;48.090;9.754;2022-12-18T01:39:03;-2.30;99.90
22966;DHT22;11649;48.090;9.754;2022-12-18T01:41:32;-2.30;99.90
22966;DHT22;11649;48.090;9.754;2022-12-18T01:47:20;-2.30;99.90
22966;DHT22;11649;48.090;9.754;2022-12-18T01:49:48;-2.30;99.90
22966;DHT22;11649;48.090;9.754;2022-12-18T01:52:15;-2.30;99.90
22966;DHT22;11649;48.090;9.754;2022-12-18T01:54:44;-2.40;99.90
22966;DHT22;11649;48.090;9.754;2022-12-18T01:57:11;-2.30;99.90
22966;DHT22;11649;48.090;9.754;2022-12-18T01:59:39;-2.30;99.90
22966;DHT22;11649;48.090;9.754;2022-12-18T02:02:08;-2.30;99.90
22966;DHT22;11649;48.090;9.754;2022-12-18T02:04:35;-2.20;99.90
22966;DHT22;11649;48.090;9.754;2022-12-18T02:10:24;-2.20;99.90
22966;DHT22;11649;48.090;9.754;2022-12-18T02:13:06;-2.40;99.90
22966;DHT22;11649;48.090;9.754;2022-12-18T02:15:51;-2.40;99.90
22966;DHT22;11649;48.090;9.754;2022-12-18T02:18:35;-2.50;99.90
22966;DHT22;11649;48.090;9.754;2022-12-18T02:26:45;-2.50;99.90
22966;DHT22;11649;48.090;9.754;2022-12-18T02:29:21;-2.50;99.90
22966;DHT22;11649;48.090;9.754;2022-12-18T02:31:52;-2.70;99.90
22966;DHT22;11649;48.090;9.754;2022-12-18T02:34:22;-2.70;99.90
22966;DHT22;11649;48.090;9.754;2022-12-18T02:36:51;-2.70;99.90
22966;DHT22;11649;48.090;9.754;2022-12-18T02:39:21;-2.60;99.90
22966;DHT22;11649;48.090;9.754;2022-12-18T02:41:50;-2.60;99.90
22966;DHT22;11649;48.090;9.754;2022-12-18T02:44:17;-2.60;99.90
22966;DHT22;11649;48.090;9.754;2022-12-18T02:46:52;-2.60;99.90
22966;DHT22;11649;48.090;9.754;2022-12-18T02:52:17;-2.50;99.90
22966;DHT22;11649;48.090;9.754;2022-12-18T02:58:05;-2.50;99.90
22966;DHT22;11649;48.090;9.754;2022-12-18T03:03:11;-2.40;99.90
22966;DHT22;11649;48.090;9.754;2022-12-18T03:05:52;-2.30;99.90
22966;DHT22;11649;48.090;9.754;2022-12-18T03:08:23;-2.20;99.90
22966;DHT22;11649;48.090;9.754;2022-12-18T03:11:03;-2.30;99.90
22966;DHT22;11649;48.090;9.754;2022-12-18T03:13:54;-2.30;99.90
22966;DHT22;11649;48.090;9.754;2022-12-18T03:16:27;-2.20;99.90
22966;DHT22;11649;48.090;9.754;2022-12-18T03:19:01;-2.30;99.90
22966;DHT22;11649;48.090;9.754;2022-12-18T03:21:34;-2.30;99.90
22966;DHT22;11649;48.090;9.754;2022-12-18T03:24:04;-2.30;99.90
22966;DHT22;11649;48.090;9.754;2022-12-18T03:26:33;-2.40;99.90
22966;DHT22;11649;48.090;9.754;2022-12-18T03:29:08;-2.30;99.90
22966;DHT22;11649;48.090;9.754;2022-12-18T03:31:37;-2.30;99.90
22966;DHT22;11649;48.090;9.754;2022-12-18T03:34:11;-2.20;99.90
22966;DHT22;11649;48.090;9.754;2022-12-18T03:36:40;-2.20;99.90
22966;DHT22;11649;48.090;9.754;2022-12-18T03:39:07;-2.10;99.90
22966;DHT22;11649;48.090;9.754;2022-12-18T03:41:51;-2.20;99.90
22966;DHT22;11649;48.090;9.754;2022-12-18T03:47:05;-2.30;99.90
22966;DHT22;11649;48.090;9.754;2022-12-18T03:52:52;-2.40;99.90
22966;DHT22;11649;48.090;9.754;2022-12-18T03:55:22;-2.50;99.90
22966;DHT22;11649;48.090;9.754;2022-12-18T03:57:51;-2.40;99.90
22966;DHT22;11649;48.090;9.754;2022-12-18T04:00:19;-2.50;99.90
22966;DHT22;11649;48.090;9.754;2022-12-18T04:02:52;-2.40;99.90
22966;DHT22;11649;48.090;9.754;2022-12-18T04:05:22;-2.40;99.90
22966;DHT22;11649;48.090;9.754;2022-12-18T04:07:50;-2.30;99.90
22966;DHT22;11649;48.090;9.754;2022-12-18T04:10:18;-2.40;99.90
22966;DHT22;11649;48.090;9.754;2022-12-18T04:12:45;-2.30;99.90
22966;DHT22;11649;48.090;9.754;2022-12-18T04:15:12;-2.20;99.90
22966;DHT22;11649;48.090;9.754;2022-12-18T04:17:47;-2.20;99.90
22966;DHT22;11649;48.090;9.754;2022-12-18T04:20:15;-2.10;99.90
22966;DHT22;11649;48.090;9.754;2022-12-18T04:22:42;-2.10;99.90
22966;DHT22;11649;48.090;9.754;2022-12-18T04:25:09;-2.10;99.90
22966;DHT22;11649;48.090;9.754;2022-12-18T04:27:35;-2.20;99.90
22966;DHT22;11649;48.090;9.754;2022-12-18T04:30:03;-2.30;99.90
22966;DHT22;11649;48.090;9.754;2022-12-18T04:32:33;-2.30;99.90
22966;DHT22;11649;48.090;9.754;2022-12-18T04:35:00;-2.40;99.90
22966;DHT22;11649;48.090;9.754;2022-12-18T04:37:27;-2.40;99.90
22966;DHT22;11649;48.090;9.754;2022-12-18T04:39:54;-2.40;99.90
22966;DHT22;11649;48.090;9.754;2022-12-18T04:42:21;-2.50;99.90
22966;DHT22;11649;48.090;9.754;2022-12-18T04:44:47;-2.60;99.90
22966;DHT22;11649;48.090;9.754;2022-12-18T04:47:14;-2.70;99.90
22966;DHT22;11649;48.090;9.754;2022-12-18T04:49:41;-2.60;99.90
22966;DHT22;11649;48.090;9.754;2022-12-18T04:52:08;-2.40;99.90
22966;DHT22;11649;48.090;9.754;2022-12-18T04:54:34;-2.50;99.90
22966;DHT22;11649;48.090;9.754;2022-12-18T04:57:01;-2.70;99.90
22966;DHT22;11649;48.090;9.754;2022-12-18T04:59:28;-2.70;99.90
22966;DHT22;11649;48.090;9.754;2022-12-18T05:01:55;-2.70;99.90
22966;DHT22;11649;48.090;9.754;2022-12-18T05:04:22;-2.60;99.90
22966;DHT22;11649;48.090;9.754;2022-12-18T05:06:48;-2.50;99.90
22966;DHT22;11649;48.090;9.754;2022-12-18T05:09:15;-2.50;99.90
22966;DHT22;11649;48.090;9.754;2022-12-18T05:11:42;-2.50;99.90
22966;DHT22;11649;48.090;9.754;2022-12-18T05:14:09;-2.60;99.90
22966;DHT22;11649;48.090;9.754;2022-12-18T05:16:36;-2.70;99.90
22966;DHT22;11649;48.090;9.754;2022-12-18T05:19:03;-2.80;99.90
22966;DHT22;11649;48.090;9.754;2022-12-18T05:21:30;-2.70;99.90
22966;DHT22;11649;48.090;9.754;2022-12-18T05:23:56;-2.50;99.90
22966;DHT22;11649;48.090;9.754;2022-12-18T05:26:23;-2.50;99.90
22966;DHT22;11649;48.090;9.754;2022-12-18T05:28:50;-2.40;99.90
22966;DHT22;11649;48.090;9.754;2022-12-18T05:31:17;-2.30;99.90
22966;DHT22;11649;48.090;9.754;2022-12-18T05:33:44;-2.20;99.90
22966;DHT22;11649;48.090;9.754;2022-12-18T05:36:10;-2.10;99.90
22966;DHT22;11649;48.090;9.754;2022-12-18T05:38:39;-2.10;99.90
22966;DHT22;11649;48.090;9.754;2022-12-18T05:41:06;-2.10;99.90
22966;DHT22;11649;48.090;9.754;2022-12-18T05:43:35;-2.30;99.90
22966;DHT22;11649;48.090;9.754;2022-12-18T05:46:05;-2.40;99.90
22966;DHT22;11649;48.090;9.754;2022-12-18T05:48:32;-2.40;99.90
22966;DHT22;11649;48.090;9.754;2022-12-18T05:51:04;-2.70;99.90
22966;DHT22;11649;48.090;9.754;2022-12-18T05:53:32;-2.90;99.90
22966;DHT22;11649;48.090;9.754;2022-12-18T05:56:04;-2.90;99.90
22966;DHT22;11649;48.090;9.754;2022-12-18T05:58:32;-2.80;99.90
22966;DHT22;11649;48.090;9.754;2022-12-18T06:01:10;-2.60;99.90
22966;DHT22;11649;48.090;9.754;2022-12-18T06:03:37;-2.70;99.90
22966;DHT22;11649;48.090;9.754;2022-12-18T06:06:19;-2.70;99.90
22966;DHT22;11649;48.090;9.754;2022-12-18T06:08:46;-2.60;99.90
22966;DHT22;11649;48.090;9.754;2022-12-18T06:11:17;-2.60;99.90
22966;DHT22;11649;48.090;9.754;2022-12-18T06:13:44;-2.60;99.90
22966;DHT22;11649;48.090;9.754;2022-12-18T06:16:12;-2.60;99.90
22966;DHT22;11649;48.090;9.754;2022-12-18T06:18:38;-3.00;99.90
22966;DHT22;11649;48.090;9.754;2022-12-18T06:21:05;-2.90;99.90
22966;DHT22;11649;48.090;9.754;2022-12-18T06:23:34;-2.90;99.90
22966;DHT22;11649;48.090;9.754;2022-12-18T06:26:08;-2.80;99.90
22966;DHT22;11649;48.090;9.754;2022-12-18T06:28:35;-2.80;99.90
22966;DHT22;11649;48.090;9.754;2022-12-18T06:31:04;-2.90;99.90
22966;DHT22;11649;48.090;9.754;2022-12-18T06:33:32;-2.80;99.90
22966;DHT22;11649;48.090;9.754;2022-12-18T06:36:04;-2.70;99.90
22966;DHT22;11649;48.090;9.754;2022-12-18T06:38:33;-2.60;99.90
22966;DHT22;11649;48.090;9.754;2022-12-18T06:41:00;-2.70;99.90
22966;DHT22;11649;48.090;9.754;2022-12-18T06:43:27;-2.60;99.90
22966;DHT22;11649;48.090;9.754;2022-12-18T06:46:00;-2.60;99.90
22966;DHT22;11649;48.090;9.754;2022-12-18T06:48:27;-2.60;99.90
22966;DHT22;11649;48.090;9.754;2022-12-18T06:50:54;-2.60;99.90
22966;DHT22;11649;48.090;9.754;2022-12-18T06:53:21;-2.60;99.90
22966;DHT22;11649;48.090;9.754;2022-12-18T06:55:49;-2.70;99.90
22966;DHT22;11649;48.090;9.754;2022-12-18T06:58:16;-2.70;99.90
22966;DHT22;11649;48.090;9.754;2022-12-18T07:00:43;-2.70;99.90
22966;DHT22;11649;48.090;9.754;2022-12-18T07:03:11;-2.70;99.90
22966;DHT22;11649;48.090;9.754;2022-12-18T07:05:41;-2.70;99.90
22966;DHT22;11649;48.090;9.754;2022-12-18T07:08:08;-2.70;99.90
22966;DHT22;11649;48.090;9.754;2022-12-18T07:10:44;-2.70;99.90
22966;DHT22;11649;48.090;9.754;2022-12-18T07:13:15;-2.80;99.90
22966;DHT22;11649;48.090;9.754;2022-12-18T07:15:43;-2.70;99.90
22966;DHT22;11649;48.090;9.754;2022-12-18T07:18:10;-2.70;99.90
22966;DHT22;11649;48.090;9.754;2022-12-18T07:20:37;-2.70;99.90
22966;DHT22;11649;48.090;9.754;2022-12-18T07:23:05;-2.90;99.90
22966;DHT22;11649;48.090;9.754;2022-12-18T07:25:35;-3.40;99.90
22966;DHT22;11649;48.090;9.754;2022-12-18T07:28:03;-3.70;99.90
22966;DHT22;11649;48.090;9.754;2022-12-18T07:30:30;-3.80;99.90
22966;DHT22;11649;48.090;9.754;2022-12-18T07:32:57;-3.90;99.90
22966;DHT22;11649;48.090;9.754;2022-12-18T07:35:24;-3.60;99.90
22966;DHT22;11649;48.090;9.754;2022-12-18T07:37:51;-3.50;99.90
22966;DHT22;11649;48.090;9.754;2022-12-18T07:40:18;-3.30;99.90
22966;DHT22;11649;48.090;9.754;2022-12-18T07:42:44;-3.30;99.90
22966;DHT22;11649;48.090;9.754;2022-12-18T07:45:11;-3.10;99.90
22966;DHT22;11649;48.090;9.754;2022-12-18T07:47:38;-2.90;99.90
22966;DHT22;11649;48.090;9.754;2022-12-18T07:50:05;-2.80;99.90
22966;DHT22;11649;48.090;9.754;2022-12-18T07:52:32;-2.80;99.90
22966;DHT22;11649;48.090;9.754;2022-12-18T07:54:59;-2.80;99.90
22966;DHT22;11649;48.090;9.754;2022-12-18T07:57:26;-2.60;99.90
22966;DHT22;11649;48.090;9.754;2022-12-18T08:00:13;-2.50;99.90
22966;DHT22;11649;48.090;9.754;2022-12-18T08:02:40;-2.50;99.90
22966;DHT22;11649;48.090;9.754;2022-12-18T08:05:08;-2.40;99.90
22966;DHT22;11649;48.090;9.754;2022-12-18T08:07:34;-2.90;99.90
22966;DHT22;11649;48.090;9.754;2022-12-18T08:10:01;-2.90;99.90
22966;DHT22;11649;48.090;9.754;2022-12-18T08:12:29;-2.30;99.90
22966;DHT22;11649;48.090;9.754;2022-12-18T08:14:56;-2.60;99.90
22966;DHT22;11649;48.090;9.754;2022-12-18T08:17:23;-2.80;99.90
22966;DHT22;11649;48.090;9.754;2022-12-18T08:19:50;-2.70;99.90
22966;DHT22;11649;48.090;9.754;2022-12-18T08:22:16;-2.70;99.90
22966;DHT22;11649;48.090;9.754;2022-12-18T08:24:44;-2.50;99.90
22966;DHT22;11649;48.090;9.754;2022-12-18T08:27:11;-2.40;99.90
22966;DHT22;11649;48.090;9.754;2022-12-18T08:29:54;-2.40;99.90
22966;DHT22;11649;48.090;9.754;2022-12-18T08:32:22;-2.50;99.90
22966;DHT22;11649;48.090;9.754;2022-12-18T08:34:49;-2.70;99.90
22966;DHT22;11649;48.090;9.754;2022-12-18T08:37:16;-2.60;99.90
22966;DHT22;11649;48.090;9.754;2022-12-18T08:39:42;-2.50;99.90
22966;DHT22;11649;48.090;9.754;2022-12-18T08:42:09;-2.40;99.90
22966;DHT22;11649;48.090;9.754;2022-12-18T08:44:55;-2.40;99.90
22966;DHT22;11649;48.090;9.754;2022-12-18T08:47:22;-2.60;99.90
22966;DHT22;11649;48.090;9.754;2022-12-18T08:49:48;-2.50;99.90
22966;DHT22;11649;48.090;9.754;2022-12-18T08:52:15;-2.30;99.90
22966;DHT22;11649;48.090;9.754;2022-12-18T08:54:42;-2.00;99.90
22966;DHT22;11649;48.090;9.754;2022-12-18T08:57:09;-2.30;99.90
22966;DHT22;11649;48.090;9.754;2022-12-18T08:59:36;-2.70;99.90
22966;DHT22;11649;48.090;9.754;2022-12-18T09:02:02;-2.40;99.90
22966;DHT22;11649;48.090;9.754;2022-12-18T09:04:29;-2.30;99.90
22966;DHT22;11649;48.090;9.754;2022-12-18T09:06:56;-2.20;99.90
22966;DHT22;11649;48.090;9.754;2022-12-18T09:09:23;-2.10;98.60
22966;DHT22;11649;48.090;9.754;2022-12-18T09:11:50;-2.20;99.80
22966;DHT22;11649;48.090;9.754;2022-12-18T09:14:16;-2.20;99.60
22966;DHT22;11649;48.090;9.754;2022-12-18T09:16:43;-2.10;98.80
22966;DHT22;11649;48.090;9.754;2022-12-18T09:19:10;-2.20;99.50
22966;DHT22;11649;48.090;9.754;2022-12-18T09:21:37;-2.30;99.10
22966;DHT22;11649;48.090;9.754;2022-12-18T09:24:15;-2.50;99.90
22966;DHT22;11649;48.090;9.754;2022-12-18T09:26:42;-2.60;99.90
22966;DHT22;11649;48.090;9.754;2022-12-18T09:29:14;-2.60;99.90
22966;DHT22;11649;48.090;9.754;2022-12-18T09:31:41;-2.50;99.90
22966;DHT22;11649;48.090;9.754;2022-12-18T09:34:08;-2.40;99.90
22966;DHT22;11649;48.090;9.754;2022-12-18T09:36:35;-2.40;99.90
22966;DHT22;11649;48.090;9.754;2022-12-18T09:39:02;-2.50;99.90
22966;DHT22;11649;48.090;9.754;2022-12-18T09:41:47;-2.50;99.90
22966;DHT22;11649;48.090;9.754;2022-12-18T09:47:17;-2.10;99.90
22966;DHT22;11649;48.090;9.754;2022-12-18T09:49:49;-2.10;99.90
22966;DHT22;11649;48.090;9.754;2022-12-18T09:57:47;-1.80;98.80
22966;DHT22;11649;48.090;9.754;2022-12-18T10:00:21;-1.80;99.90
22966;DHT22;11649;48.090;9.754;2022-12-18T10:02:50;-2.00;99.90
22966;DHT22;11649;48.090;9.754;2022-12-18T10:08:11;-1.90;99.90
22966;DHT22;11649;48.090;9.754;2022-12-18T10:10:57;-1.90;99.90
22966;DHT22;11649;48.090;9.754;2022-12-18T10:13:52;-2.20;99.90
22966;DHT22;11649;48.090;9.754;2022-12-18T10:16:29;-2.10;99.90
22966;DHT22;11649;48.090;9.754;2022-12-18T10:27:45;-1.80;99.90
22966;DHT22;11649;48.090;9.754;2022-12-18T10:30:15;-2.30;99.90
22966;DHT22;11649;48.090;9.754;2022-12-18T10:32:42;-2.30;99.90
22966;DHT22;11649;48.090;9.754;2022-12-18T10:35:27;-2.20;99.90
22966;DHT22;11649;48.090;9.754;2022-12-18T10:41:06;-1.70;99.90
22966;DHT22;11649;48.090;9.754;2022-12-18T10:43:40;-1.80;98.30
22966;DHT22;11649;48.090;9.754;2022-12-18T10:48:39;-1.80;98.40
22966;DHT22;11649;48.090;9.754;2022-12-18T10:51:07;-1.70;99.10
22966;DHT22;11649;48.090;9.754;2022-12-18T10:53:40;-1.60;97.30
22966;DHT22;11649;48.090;9.754;2022-12-18T10:56:08;-1.50;97.80
22966;DHT22;11649;48.090;9.754;2022-12-18T10:58:37;-2.00;98.50
22966;DHT22;11649;48.090;9.754;2022-12-18T11:03:45;-2.00;99.90
22966;DHT22;11649;48.090;9.754;2022-12-18T11:06:15;-1.70;99.90
22966;DHT22;11649;48.090;9.754;2022-12-18T11:08:45;-1.40;99.90
22966;DHT22;11649;48.090;9.754;2022-12-18T11:11:24;-1.40;98.10
22966;DHT22;11649;48.090;9.754;2022-12-18T11:16:23;-1.90;99.90
22966;DHT22;11649;48.090;9.754;2022-12-18T11:18:50;-2.00;99.60
22966;DHT22;11649;48.090;9.754;2022-12-18T11:21:17;-1.90;99.90
22966;DHT22;11649;48.090;9.754;2022-12-18T11:23:50;-1.90;99.90
22966;DHT22;11649;48.090;9.754;2022-12-18T11:26:18;-1.80;99.90
22966;DHT22;11649;48.090;9.754;2022-12-18T11:31:23;-1.70;99.90
22966;DHT22;11649;48.090;9.754;2022-12-18T11:34:13;-1.50;99.90
22966;DHT22;11649;48.090;9.754;2022-12-18T11:36:58;-1.80;99.30
22966;DHT22;11649;48.090;9.754;2022-12-18T11:39:32;-1.60;99.70
22966;DHT22;11649;48.090;9.754;2022-12-18T11:47:37;-1.20;98.70
22966;DHT22;11649;48.090;9.754;2022-12-18T11:50:20;-1.30;98.80
22966;DHT22;11649;48.090;9.754;2022-12-18T11:52:49;-1.50;98.00
22966;DHT22;11649;48.090;9.754;2022-12-18T12:00:31;-1.90;99.90
22966;DHT22;11649;48.090;9.754;2022-12-18T12:03:22;-1.50;99.60
22966;DHT22;11649;48.090;9.754;2022-12-18T12:11:44;-1.30;99.00
22966;DHT22;11649;48.090;9.754;2022-12-18T12:19:53;-1.30;96.40
22966;DHT22;11649;48.090;9.754;2022-12-18T12:38:41;-1.40;96.60
22966;DHT22;11649;48.090;9.754;2022-12-18T12:41:19;-1.40;97.70
22966;DHT22;11649;48.090;9.754;2022-12-18T12:44:12;-1.40;96.40
22966;DHT22;11649;48.090;9.754;2022-12-18T12:46:42;-1.70;98.40
22966;DHT22;11649;48.090;9.754;2022-12-18T12:49:15;-1.70;98.80
22966;DHT22;11649;48.090;9.754;2022-12-18T12:51:46;-1.70;98.90
22966;DHT22;11649;48.090;9.754;2022-12-18T12:54:22;-1.80;98.20
22966;DHT22;11649;48.090;9.754;2022-12-18T12:57:16;-1.70;98.00
22966;DHT22;11649;48.090;9.754;2022-12-18T13:00:05;-2.20;99.90
22966;DHT22;11649;48.090;9.754;2022-12-18T13:02:46;-1.90;98.90
22966;DHT22;11649;48.090;9.754;2022-12-18T13:05:33;-1.80;98.40
22966;DHT22;11649;48.090;9.754;2022-12-18T13:08:09;-2.20;99.90
22966;DHT22;11649;48.090;9.754;2022-12-18T13:10:42;-2.10;99.90
22966;DHT22;11649;48.090;9.754;2022-12-18T13:13:13;-2.00;99.90
22966;DHT22;11649;48.090;9.754;2022-12-18T13:16:08;-1.70;99.90
22966;DHT22;11649;48.090;9.754;2022-12-18T13:18:35;-1.50;99.90
22966;DHT22;11649;48.090;9.754;2022-12-18T13:21:14;-1.50;99.30
22966;DHT22;11649;48.090;9.754;2022-12-18T13:23:44;-2.10;99.90
22966;DHT22;11649;48.090;9.754;2022-12-18T13:26:29;-2.10;99.90
22966;DHT22;11649;48.090;9.754;2022-12-18T13:28:58;-1.90;99.90
22966;DHT22;11649;48.090;9.754;2022-12-18T13:34:20;-1.90;99.90
22966;DHT22;11649;48.090;9.754;2022-12-18T13:36:55;-2.10;99.90
22966;DHT22;11649;48.090;9.754;2022-12-18T13:39:25;-2.20;99.90
22966;DHT22;11649;48.090;9.754;2022-12-18T13:44:39;-1.60;99.40
22966;DHT22;11649;48.090;9.754;2022-12-18T13:47:31;-1.50;98.90
22966;DHT22;11649;48.090;9.754;2022-12-18T13:49:59;-1.40;98.30
22966;DHT22;11649;48.090;9.754;2022-12-18T13:52:28;-1.30;98.10
22966;DHT22;11649;48.090;9.754;2022-12-18T13:55:02;-1.40;98.40
22966;DHT22;11649;48.090;9.754;2022-12-18T13:57:34;-1.60;99.50
22966;DHT22;11649;48.090;9.754;2022-12-18T14:00:27;-1.80;99.90
22966;DHT22;11649;48.090;9.754;2022-12-18T14:02:59;-2.90;99.90
22966;DHT22;11649;48.090;9.754;2022-12-18T14:05:31;-3.00;99.90
22966;DHT22;11649;48.090;9.754;2022-12-18T14:08:19;-2.60;99.90
22966;DHT22;11649;48.090;9.754;2022-12-18T14:10:48;-2.30;99.90
22966;DHT22;11649;48.090;9.754;2022-12-18T14:13:28;-2.10;99.90
22966;DHT22;11649;48.090;9.754;2022-12-18T14:15:56;-2.00;99.90
22966;DHT22;11649;48.090;9.754;2022-12-18T14:21:27;-1.90;99.90
22966;DHT22;11649;48.090;9.754;2022-12-18T14:24:23;-1.90;99.90
22966;DHT22;11649;48.090;9.754;2022-12-18T14:26:50;-1.80;99.90
22966;DHT22;11649;48.090;9.754;2022-12-18T14:29:29;-2.20;99.90
22966;DHT22;11649;48.090;9.754;2022-12-18T14:32:12;-2.10;99.90
22966;DHT22;11649;48.090;9.754;2022-12-18T14:34:51;-2.00;99.90
22966;DHT22;11649;48.090;9.754;2022-12-18T14:37:22;-2.20;99.90
22966;DHT22;11649;48.090;9.754;2022-12-18T14:39:57;-2.20;99.90
22966;DHT22;11649;48.090;9.754;2022-12-18T14:42:26;-2.30;99.90
22966;DHT22;11649;48.090;9.754;2022-12-18T14:51:21;-2.80;99.90
22966;DHT22;11649;48.090;9.754;2022-12-18T14:56:31;-2.20;99.90
22966;DHT22;11649;48.090;9.754;2022-12-18T14:59:12;-2.30;99.90
22966;DHT22;11649;48.090;9.754;2022-12-18T15:02:03;-2.20;99.90
22966;DHT22;11649;48.090;9.754;2022-12-18T15:04:39;-2.10;99.90
22966;DHT22;11649;48.090;9.754;2022-12-18T15:07:22;-2.40;99.90
22966;DHT22;11649;48.090;9.754;2022-12-18T15:10:10;-2.80;99.90
22966;DHT22;11649;48.090;9.754;2022-12-18T15:26:13;-2.40;99.90
22966;DHT22;11649;48.090;9.754;2022-12-18T15:36:22;-2.40;99.90
22966;DHT22;11649;48.090;9.754;2022-12-18T15:38:54;-2.30;99.90
22966;DHT22;11649;48.090;9.754;2022-12-18T15:41:32;-2.30;99.90
22966;DHT22;11649;48.090;9.754;2022-12-18T15:44:02;-2.30;99.90
22966;DHT22;11649;48.090;9.754;2022-12-18T15:46:29;-2.20;99.90
22966;DHT22;11649;48.090;9.754;2022-12-18T15:48:58;-2.40;99.90
22966;DHT22;11649;48.090;9.754;2022-12-18T15:51:33;-2.40;99.90
22966;DHT22;11649;48.090;9.754;2022-12-18T15:54:03;-2.40;99.90
22966;DHT22;11649;48.090;9.754;2022-12-18T15:56:31;-2.40;99.90
22966;DHT22;11649;48.090;9.754;2022-12-18T15:59:19;-2.40;99.90
22966;DHT22;11649;48.090;9.754;2022-12-18T16:01:48;-2.50;99.90
22966;DHT22;11649;48.090;9.754;2022-12-18T16:04:17;-2.70;99.90
22966;DHT22;11649;48.090;9.754;2022-12-18T16:06:44;-3.10;99.90
22966;DHT22;11649;48.090;9.754;2022-12-18T16:09:31;-3.00;99.90
22966;DHT22;11649;48.090;9.754;2022-12-18T16:11:57;-2.80;99.90
22966;DHT22;11649;48.090;9.754;2022-12-18T16:14:26;-2.60;99.90
22966;DHT22;11649;48.090;9.754;2022-12-18T16:16:58;-2.50;99.90
22966;DHT22;11649;48.090;9.754;2022-12-18T16:19:26;-2.50;99.90
22966;DHT22;11649;48.090;9.754;2022-12-18T16:21:55;-2.40;99.90
22966;DHT22;11649;48.090;9.754;2022-12-18T16:24:25;-2.50;99.90
22966;DHT22;11649;48.090;9.754;2022-12-18T16:26:53;-2.50;99.90
22966;DHT22;11649;48.090;9.754;2022-12-18T16:29:20;-2.40;99.90
22966;DHT22;11649;48.090;9.754;2022-12-18T16:31:58;-2.60;99.90
22966;DHT22;11649;48.090;9.754;2022-12-18T16:34:30;-2.50;99.90
22966;DHT22;11649;48.090;9.754;2022-12-18T16:37:06;-2.40;99.90
22966;DHT22;11649;48.090;9.754;2022-12-18T16:39:33;-2.50;99.90
22966;DHT22;11649;48.090;9.754;2022-12-18T16:42:03;-2.60;99.90
22966;DHT22;11649;48.090;9.754;2022-12-18T16:44:32;-2.60;99.90
22966;DHT22;11649;48.090;9.754;2022-12-18T16:46:59;-2.50;99.90
22966;DHT22;11649;48.090;9.754;2022-12-18T16:49:29;-2.60;99.90
22966;DHT22;11649;48.090;9.754;2022-12-18T16:51:56;-2.70;99.90
22966;DHT22;11649;48.090;9.754;2022-12-18T16:54:23;-2.60;99.90
22966;DHT22;11649;48.090;9.754;2022-12-18T16:56:51;-2.40;99.90
22966;DHT22;11649;48.090;9.754;2022-12-18T16:59:18;-2.30;99.90
22966;DHT22;11649;48.090;9.754;2022-12-18T17:01:45;-2.30;99.90
22966;DHT22;11649;48.090;9.754;2022-12-18T17:04:13;-2.20;99.90
22966;DHT22;11649;48.090;9.754;2022-12-18T17:06:44;-2.20;99.90
22966;DHT22;11649;48.090;9.754;2022-12-18T17:09:15;-2.20;99.90
22966;DHT22;11649;48.090;9.754;2022-12-18T17:11:43;-2.20;99.90
22966;DHT22;11649;48.090;9.754;2022-12-18T17:14:16;-2.60;99.90
22966;DHT22;11649;48.090;9.754;2022-12-18T17:16:44;-2.50;99.90
22966;DHT22;11649;48.090;9.754;2022-12-18T17:19:12;-2.40;99.90
22966;DHT22;11649;48.090;9.754;2022-12-18T17:21:44;-2.30;99.90
22966;DHT22;11649;48.090;9.754;2022-12-18T17:24:11;-2.20;99.90
22966;DHT22;11649;48.090;9.754;2022-12-18T17:26:38;-2.10;99.90
22966;DHT22;11649;48.090;9.754;2022-12-18T17:29:05;-2.10;99.90
22966;DHT22;11649;48.090;9.754;2022-12-18T17:31:32;-2.10;99.90
22966;DHT22;11649;48.090;9.754;2022-12-18T17:34:01;-2.10;99.90
22966;DHT22;11649;48.090;9.754;2022-12-18T17:36:28;-2.20;99.90
22966;DHT22;11649;48.090;9.754;2022-12-18T17:38:59;-2.30;99.90
22966;DHT22;11649;48.090;9.754;2022-12-18T17:41:27;-2.20;99.90
22966;DHT22;11649;48.090;9.754;2022-12-18T17:43:57;-2.20;99.90
22966;DHT22;11649;48.090;9.754;2022-12-18T17:46:25;-2.10;99.90
22966;DHT22;11649;48.090;9.754;2022-12-18T17:48:57;-2.20;99.90
22966;DHT22;11649;48.090;9.754;2022-12-18T17:51:24;-2.10;99.90
22966;DHT22;11649;48.090;9.754;2022-12-18T17:53:51;-2.10;99.90
22966;DHT22;11649;48.090;9.754;2022-12-18T17:56:20;-2.10;99.90
22966;DHT22;11649;48.090;9.754;2022-12-18T17:58:47;-2.10;99.90
22966;DHT22;11649;48.090;9.754;2022-12-18T18:01:21;-2.10;99.90
22966;DHT22;11649;48.090;9.754;2022-12-18T18:03:49;-2.10;99.90
22966;DHT22;11649;48.090;9.754;2022-12-18T18:06:19;-2.10;99.90
22966;DHT22;11649;48.090;9.754;2022-12-18T18:08:46;-2.10;99.90
22966;DHT22;11649;48.090;9.754;2022-12-18T18:11:16;-2.10;99.90